Time;durP1;ratioP1;P1;durP2;ratioP2;P2;SDS_P1;SDS_P2;PMS_P1;PMS_P2;Temp;Humidity;BMP_temperature;BMP_pressure;BME280_temperature;BME280_humidity;BME280_pressure;Samples;Min_cycle;Max_cycle;Signal;HPM_P1;HPM_P2
2022/03/19 00:00:27;;;;;;;;;7.50;7.50;;;;;13.17;36.18;102975.88;2105112;28;47553;-59
2022/03/19 00:01:27;;;;;;;;;7.00;7.00;;;;;13.17;36.00;102974.97;2113277;27;47621;-61
2022/03/19 00:02:28;;;;;;;;;6.00;6.00;;;;;13.16;36.16;102974.09;2114232;27;47661;-60
2022/03/19 00:03:29;;;;;;;;;5.50;5.50;;;;;13.16;36.17;102975.84;2111491;27;48100;-59
2022/03/19 00:04:29;;;;;;;;;4.40;4.40;;;;;13.16;35.85;102968.75;2095418;28;47509;-58
2022/03/19 00:05:30;;;;;;;;;6.25;5.50;;;;;13.16;35.67;102975.84;2096321;28;47502;-61
2022/03/19 00:06:36;;;;;;;;;5.00;5.00;;;;;13.15;36.09;102977.63;2110039;27;47531;-60
2022/03/19 00:07:40;;;;;;;;;4.40;4.40;;;;;13.15;36.12;102976.75;2114099;27;48160;-61
2022/03/19 00:08:41;;;;;;;;;7.80;6.40;;;;;13.14;35.95;102981.19;2114010;27;47854;-60
2022/03/19 00:09:42;;;;;;;;;5.25;5.25;;;;;13.13;36.12;102982.06;2114342;27;47504;-61
2022/03/19 00:10:43;;;;;;;;;8.00;6.20;;;;;13.13;36.09;102978.53;2113883;27;47827;-61
2022/03/19 00:11:44;;;;;;;;;5.80;5.80;;;;;13.13;36.09;102975.84;2114174;27;47463;-61
2022/03/19 00:12:44;;;;;;;;;4.00;4.00;;;;;13.12;36.03;102977.63;2114053;27;47425;-61
2022/03/19 00:13:44;;;;;;;;;7.00;7.00;;;;;13.12;35.81;102974.97;2114034;27;47226;-62
2022/03/19 00:14:45;;;;;;;;;6.00;6.00;;;;;13.11;35.87;102978.53;2114131;27;47861;-60
2022/03/19 00:15:46;;;;;;;;;5.50;5.50;;;;;13.11;35.93;102977.63;2113928;27;47675;-60
2022/03/19 00:16:46;;;;;;;;;5.00;5.00;;;;;13.10;35.92;102981.19;2113941;27;47649;-59
2022/03/19 00:17:47;;;;;;;;;5.00;4.00;;;;;13.09;35.86;102972.31;2113995;27;47760;-60
2022/03/19 00:18:48;;;;;;;;;7.00;7.00;;;;;13.08;35.96;102981.16;2113889;27;47241;-59
2022/03/19 00:19:48;;;;;;;;;5.00;5.00;;;;;13.08;36.22;102983.81;2114327;27;48162;-60
2022/03/19 00:20:49;;;;;;;;;8.00;6.50;;;;;13.09;36.11;102977.63;2106447;27;47837;-61
2022/03/19 00:21:50;;;;;;;;;6.50;6.50;;;;;13.09;35.94;102976.75;2108315;27;47884;-61
2022/03/19 00:22:51;;;;;;;;;7.40;7.20;;;;;13.08;35.90;102973.16;2111173;27;47730;-60
2022/03/19 00:23:51;;;;;;;;;3.80;3.80;;;;;13.07;35.79;102982.03;2113137;27;47314;-60
2022/03/19 00:24:52;;;;;;;;;5.75;5.00;;;;;13.06;35.83;102974.03;2114126;27;47468;-60
2022/03/19 00:25:53;;;;;;;;;5.00;5.00;;;;;13.04;35.85;102975.81;2114035;27;47850;-60
2022/03/19 00:26:53;;;;;;;;;4.75;4.25;;;;;13.03;35.92;102982.03;2113997;27;47626;-60
2022/03/19 00:27:53;;;;;;;;;4.50;4.25;;;;;13.01;35.95;102974.03;2113752;27;48058;-60
2022/03/19 00:28:54;;;;;;;;;6.25;5.00;;;;;13.01;35.70;102978.47;2114059;27;47110;-60
2022/03/19 00:29:54;;;;;;;;;6.50;5.00;;;;;12.98;35.80;102979.34;2112415;27;47360;-60
2022/03/19 00:30:54;;;;;;;;;5.75;5.00;;;;;12.98;35.76;102982.03;2113932;27;47405;-60
2022/03/19 00:31:55;;;;;;;;;3.75;3.75;;;;;12.96;35.95;102976.69;2112357;27;47771;-59
2022/03/19 00:32:55;;;;;;;;;6.50;5.75;;;;;12.96;35.99;102983.78;2113968;27;47854;-61
2022/03/19 00:33:56;;;;;;;;;7.00;5.75;;;;;12.96;35.87;102978.47;2112507;27;47570;-60
2022/03/19 00:34:56;;;;;;;;;7.50;6.00;;;;;12.95;35.80;102971.31;2113858;27;47587;-60
2022/03/19 00:35:57;;;;;;;;;5.75;5.50;;;;;12.94;35.66;102974.88;2112715;27;47873;-59
2022/03/19 00:36:58;;;;;;;;;5.00;5.00;;;;;12.93;35.62;102971.31;2112817;27;47614;-60
2022/03/19 00:37:59;;;;;;;;;6.20;6.20;;;;;12.92;35.68;102985.53;2109438;27;47674;-59
2022/03/19 00:38:59;;;;;;;;;4.25;4.00;;;;;12.92;35.98;102972.22;2110590;27;48045;-60
2022/03/19 00:40:00;;;;;;;;;6.00;6.00;;;;;12.90;35.97;102984.63;2111466;27;47499;-59
2022/03/19 00:41:02;;;;;;;;;4.75;4.75;;;;;12.89;35.76;102982.84;2114444;27;48047;-57
2022/03/19 00:42:02;;;;;;;;;5.00;5.00;;;;;12.89;35.75;102976.63;2104668;28;47193;-59
2022/03/19 00:43:03;;;;;;;;;6.00;5.75;;;;;12.89;35.98;102979.31;2104984;28;47371;-59
2022/03/19 00:44:03;;;;;;;;;5.50;4.00;;;;;12.89;35.94;102980.19;2113501;27;47323;-60
2022/03/19 00:45:05;;;;;;;;;4.67;4.00;;;;;12.90;35.39;102981.09;2104055;28;47817;-61
2022/03/19 00:46:05;;;;;;;;;6.20;5.00;;;;;12.88;36.02;102980.19;2103990;27;47771;-59
2022/03/19 00:47:06;;;;;;;;;5.00;5.00;;;;;12.88;35.89;102978.41;2087184;28;47792;-60
2022/03/19 00:48:06;;;;;;;;;7.00;7.00;;;;;12.89;35.85;102984.63;2087558;28;47585;-61
2022/03/19 00:49:06;;;;;;;;;6.00;4.25;;;;;12.89;35.99;102979.31;2113774;27;47519;-61
2022/03/19 00:50:08;;;;;;;;;5.50;5.25;;;;;12.89;35.91;102977.53;2113703;27;47212;-61
2022/03/19 00:51:08;;;;;;;;;5.80;5.80;;;;;12.88;35.82;102978.41;2113908;27;47753;-59
2022/03/19 00:52:09;;;;;;;;;4.50;4.50;;;;;12.89;35.88;102973.97;2113919;27;47843;-59
2022/03/19 00:53:09;;;;;;;;;5.00;3.50;;;;;12.88;35.62;102975.75;2104495;28;46032;-60
2022/03/19 00:54:11;;;;;;;;;6.00;4.50;;;;;12.88;35.96;102974.84;2104797;28;47491;-60
2022/03/19 00:55:13;;;;;;;;;6.00;5.60;;;;;12.89;35.82;102968.66;2113629;27;47699;-59
2022/03/19 00:56:13;;;;;;;;;5.60;5.60;;;;;12.88;35.99;102973.09;2113995;27;47435;-61
2022/03/19 00:57:14;;;;;;;;;4.50;4.50;;;;;12.88;35.85;102973.09;2113898;27;47626;-59
2022/03/19 00:58:14;;;;;;;;;5.00;5.00;;;;;12.88;35.86;102972.19;2114006;27;47499;-61
2022/03/19 00:59:14;;;;;;;;;5.00;5.00;;;;;12.88;35.62;102961.53;2113388;27;47584;-60
2022/03/19 01:00:23;;;;;;;;;5.00;5.00;;;;;12.87;35.77;102960.66;2113825;27;48336;-59
2022/03/19 01:01:23;;;;;;;;;4.80;4.80;;;;;12.86;35.77;102968.63;2113739;27;48213;-59
2022/03/19 01:02:25;;;;;;;;;6.00;6.00;;;;;12.86;35.74;102957.97;2113572;27;47531;-59
2022/03/19 01:03:26;;;;;;;;;5.20;5.20;;;;;12.87;35.75;102959.75;2113623;27;48132;-61
2022/03/19 01:04:26;;;;;;;;;4.00;4.00;;;;;12.86;35.74;102966.88;2113679;27;47534;-59
2022/03/19 01:05:27;;;;;;;;;5.00;4.00;;;;;12.85;35.95;102954.44;2113702;27;47442;-63
2022/03/19 01:06:27;;;;;;;;;5.25;5.25;;;;;12.86;35.86;102960.66;2114037;27;47176;-61
2022/03/19 01:07:27;;;;;;;;;3.00;3.00;;;;;12.85;35.94;102959.75;2113607;27;47529;-60
2022/03/19 01:08:28;;;;;;;;;4.00;4.00;;;;;12.84;35.81;102955.31;2114024;27;47348;-60
2022/03/19 01:09:28;;;;;;;;;4.33;4.33;;;;;12.85;35.75;102961.53;2112671;27;47504;-59
2022/03/19 01:10:29;;;;;;;;;5.00;4.00;;;;;12.85;35.53;102956.19;2112605;27;47941;-61
2022/03/19 01:11:30;;;;;;;;;4.00;4.00;;;;;12.84;35.72;102954.44;2107168;27;47788;-60
2022/03/19 01:12:30;;;;;;;;;5.50;5.50;;;;;12.83;35.92;102953.53;2113837;27;47325;-59
2022/03/19 01:13:31;;;;;;;;;5.75;3.75;;;;;12.82;35.62;102937.50;2113765;27;47418;-60
2022/03/19 01:14:31;;;;;;;;;2.50;2.50;;;;;12.81;35.73;102949.94;2113637;27;47303;-60
2022/03/19 01:15:32;;;;;;;;;6.25;4.75;;;;;12.80;35.65;102953.50;2086677;28;47549;-58
2022/03/19 01:16:33;;;;;;;;;4.80;4.20;;;;;12.78;35.62;102957.94;2087178;27;47785;-61
2022/03/19 01:17:33;;;;;;;;;4.00;4.00;;;;;12.77;35.80;102957.94;2113295;27;47783;-62
2022/03/19 01:18:34;;;;;;;;;4.25;4.25;;;;;12.76;35.83;102948.16;2113739;27;48053;-60
2022/03/19 01:19:52;;;;;;;;;4.00;4.00;;;;;12.76;35.73;102959.69;2113515;27;47430;-60
2022/03/19 01:20:53;;;;;;;;;5.50;4.00;;;;;12.76;35.66;102958.81;2095782;28;48202;-59
2022/03/19 01:21:53;;;;;;;;;5.00;4.67;;;;;12.74;35.76;102958.81;2100537;27;47737;-61
2022/03/19 01:22:54;;;;;;;;;4.00;4.00;;;;;12.73;35.76;102953.47;2110480;27;47527;-60
2022/03/19 01:23:54;;;;;;;;;5.00;5.00;;;;;12.72;35.69;102960.59;2113638;27;47594;-59
2022/03/19 01:24:56;;;;;;;;;6.00;4.75;;;;;12.71;35.81;102949.91;2113471;27;47948;-61
2022/03/19 01:25:56;;;;;;;;;2.60;2.60;;;;;12.69;35.58;102960.53;2114038;27;48431;-61
2022/03/19 01:26:56;;;;;;;;;4.00;4.00;;;;;12.68;35.62;102950.75;2113591;27;48217;-60
2022/03/19 01:27:57;;;;;;;;;5.75;5.00;;;;;12.66;35.69;102956.09;2113433;27;47515;-59
2022/03/19 01:28:58;;;;;;;;;3.75;3.75;;;;;12.65;35.87;102954.31;2113271;27;47710;-60
2022/03/19 01:29:59;;;;;;;;;5.00;4.00;;;;;12.66;35.68;102955.19;2113357;27;47545;-59
2022/03/19 01:30:59;;;;;;;;;3.00;3.00;;;;;12.65;35.67;102956.09;2113501;27;47125;-58
2022/03/19 01:32:00;;;;;;;;;4.50;4.50;;;;;12.64;35.67;102959.63;2095138;28;47293;-59
2022/03/19 01:33:00;;;;;;;;;4.25;4.25;;;;;12.63;35.62;102956.09;2095638;28;47755;-58
2022/03/19 01:34:00;;;;;;;;;4.75;4.75;;;;;12.63;35.68;102950.75;2113109;27;47765;-60
2022/03/19 01:35:01;;;;;;;;;4.67;4.67;;;;;12.64;35.76;102951.63;2113552;27;47783;-59
2022/03/19 01:36:02;;;;;;;;;4.00;3.50;;;;;12.63;35.81;102952.53;2104628;28;47321;-59
2022/03/19 01:37:03;;;;;;;;;4.00;4.00;;;;;12.62;35.80;102943.66;2104714;28;46560;-57
2022/03/19 01:38:04;;;;;;;;;3.50;3.25;;;;;12.61;35.36;102941.88;2113329;27;48045;-57
2022/03/19 01:39:05;;;;;;;;;4.75;4.75;;;;;12.61;35.98;102936.53;2113533;27;47486;-59
2022/03/19 01:40:07;;;;;;;;;5.00;5.00;;;;;12.60;35.83;102937.44;2113203;27;47350;-59
2022/03/19 01:41:07;;;;;;;;;3.50;3.50;;;;;12.59;35.75;102927.66;2113511;27;47534;-60
2022/03/19 01:42:08;;;;;;;;;5.67;5.00;;;;;12.58;35.72;102933.88;2111469;27;47983;-59
2022/03/19 01:43:08;;;;;;;;;4.00;4.00;;;;;12.58;35.64;102938.31;2112434;27;48413;-60
2022/03/19 01:44:08;;;;;;;;;4.50;4.50;;;;;12.56;35.71;102932.94;2113359;27;47755;-61
2022/03/19 01:45:11;;;;;;;;;4.25;4.25;;;;;12.56;35.72;102929.38;2104891;28;48097;-60
2022/03/19 01:46:12;;;;;;;;;4.60;3.40;;;;;12.56;35.98;102932.94;2099093;28;47244;-60
2022/03/19 01:47:12;;;;;;;;;6.00;6.00;;;;;12.55;35.61;102932.94;2095814;28;48023;-61
2022/03/19 01:48:13;;;;;;;;;4.50;4.50;;;;;12.53;35.90;102934.72;2110816;27;47478;-59
2022/03/19 01:49:13;;;;;;;;;3.00;3.00;;;;;12.52;35.73;102924.94;2113508;27;47320;-61
2022/03/19 01:50:17;;;;;;;;;5.50;4.00;;;;;12.50;35.66;102929.38;2113402;27;47597;-62
2022/03/19 01:51:17;;;;;;;;;5.50;3.75;;;;;12.49;35.75;102933.81;2113290;27;48292;-62
2022/03/19 01:52:18;;;;;;;;;4.50;4.50;;;;;12.48;35.81;102926.69;2113540;27;47640;-59
2022/03/19 01:53:19;;;;;;;;;3.75;3.00;;;;;12.47;35.63;102924.94;2113182;27;47398;-62
2022/03/19 01:54:25;;;;;;;;;4.50;4.50;;;;;12.48;35.82;102929.38;2113618;27;47907;-61
2022/03/19 01:55:27;;;;;;;;;4.60;4.60;;;;;12.47;35.66;102927.59;2113012;27;48225;-61
2022/03/19 01:56:28;;;;;;;;;3.80;3.80;;;;;12.44;35.69;102932.88;2113245;27;48274;-59
2022/03/19 01:57:34;;;;;;;;;3.25;3.25;;;;;12.42;35.87;102926.66;2113127;27;47678;-61
2022/03/19 01:58:35;;;;;;;;;5.00;5.00;;;;;12.41;35.89;102923.97;2113610;27;47539;-60
2022/03/19 01:59:37;;;;;;;;;4.00;4.00;;;;;12.40;35.94;102938.19;2104160;28;47643;-60
2022/03/19 02:00:38;;;;;;;;;4.00;4.00;;;;;12.37;35.79;102931.97;2104376;27;47941;-61
2022/03/19 02:01:39;;;;;;;;;3.00;3.00;;;;;12.36;35.83;102934.63;2113478;27;48100;-60
2022/03/19 02:02:40;;;;;;;;;4.00;4.00;;;;;12.35;35.92;102927.50;2113282;27;47895;-61
2022/03/19 02:03:41;;;;;;;;;5.00;4.00;;;;;12.33;36.00;102927.50;2112182;27;47956;-59
2022/03/19 02:04:42;;;;;;;;;1.60;1.60;;;;;12.35;35.90;102932.84;2110573;27;47722;-59
2022/03/19 02:05:43;;;;;;;;;4.40;3.40;;;;;12.33;36.03;102931.94;2104169;28;47662;-60
2022/03/19 02:06:44;;;;;;;;;4.25;4.25;;;;;12.32;36.07;102931.06;2104939;28;45290;-60
2022/03/19 02:07:46;;;;;;;;;3.20;3.20;;;;;12.33;36.14;102924.84;2113097;27;48161;-60
2022/03/19 02:08:48;;;;;;;;;5.40;5.00;;;;;12.32;36.07;102922.16;2113261;27;47562;-59
2022/03/19 02:09:48;;;;;;;;;5.40;4.60;;;;;12.33;35.82;102929.28;2113258;27;47495;-60
2022/03/19 02:10:49;;;;;;;;;2.00;2.00;;;;;12.32;36.06;102923.06;2113402;27;47817;-60
2022/03/19 02:11:49;;;;;;;;;5.50;5.50;;;;;12.32;35.93;102920.41;2113306;27;48041;-59
2022/03/19 02:12:52;;;;;;;;;3.50;3.50;;;;;12.32;35.99;102923.06;2113520;27;47520;-59
2022/03/19 02:13:53;;;;;;;;;1.50;0.75;;;;;12.33;36.09;102916.84;2111738;27;47799;-60
2022/03/19 02:14:53;;;;;;;;;5.00;4.75;;;;;12.33;36.01;102921.28;2112995;27;48002;-60
2022/03/19 02:15:54;;;;;;;;;5.25;5.25;;;;;12.31;36.06;102923.91;2112109;27;48052;-58
2022/03/19 02:16:54;;;;;;;;;3.25;3.25;;;;;12.31;35.74;102923.03;2113248;27;47558;-60
2022/03/19 02:17:55;;;;;;;;;6.50;4.75;;;;;12.31;35.98;102920.38;2111863;27;47389;-60
2022/03/19 02:18:59;;;;;;;;;7.00;5.00;;;;;12.30;35.97;102921.25;2113051;27;47612;-61
2022/03/19 02:20:02;;;;;;;;;4.80;4.80;;;;;12.29;35.99;102907.03;2111478;27;47816;-60
2022/03/19 02:21:02;;;;;;;;;6.00;5.00;;;;;12.30;36.08;102915.91;2097612;28;47535;-60
2022/03/19 02:22:03;;;;;;;;;4.25;4.25;;;;;12.28;35.92;102907.94;2100230;28;47523;-60
2022/03/19 02:25:45;;;;;;;;;4.60;4.60;;;;;12.23;36.01;102914.13;2102146;28;47379;-61
2022/03/19 02:26:46;;;;;;;;;4.40;4.00;;;;;12.22;36.12;102913.22;2103158;27;47727;-60
2022/03/19 02:27:47;;;;;;;;;5.00;4.60;;;;;12.23;36.12;102916.78;2111630;27;47823;-59
2022/03/19 02:28:47;;;;;;;;;6.00;6.00;;;;;12.21;35.96;102913.22;2107665;27;47089;-57
2022/03/19 02:29:48;;;;;;;;;6.25;5.00;;;;;12.20;36.25;102907.00;2098917;28;47401;-61
2022/03/19 02:30:48;;;;;;;;;2.50;2.50;;;;;12.20;36.29;102907.00;2103912;28;47917;-61
2022/03/19 02:32:00;;;;;;;;;3.25;3.00;;;;;12.20;36.01;102903.47;2078283;28;47434;-59
2022/03/19 02:33:01;;;;;;;;;6.00;6.00;;;;;12.18;36.03;102906.09;2084378;27;48018;-60
2022/03/19 02:34:01;;;;;;;;;3.75;3.75;;;;;12.17;36.07;102900.75;2113181;27;47079;-61
2022/03/19 02:35:03;;;;;;;;;4.75;4.75;;;;;12.15;36.24;102898.09;2112785;27;47672;-60
2022/03/19 02:36:03;;;;;;;;;6.20;5.40;;;;;12.16;36.05;102896.31;2113170;27;47943;-59
2022/03/19 02:37:04;;;;;;;;;9.75;6.75;;;;;12.14;36.19;102904.28;2113506;27;47785;-60
2022/03/19 02:38:05;;;;;;;;;4.00;3.00;;;;;12.14;36.23;102898.97;2112938;27;47590;-59
2022/03/19 02:39:17;;;;;;;;;5.00;5.00;;;;;12.14;36.08;102898.09;2112789;27;48020;-60
2022/03/19 02:40:20;;;;;;;;;4.60;4.00;;;;;12.13;36.05;102894.53;2104753;28;47724;-59
2022/03/19 02:41:20;;;;;;;;;3.00;3.00;;;;;12.13;36.24;102893.63;2108764;27;48061;-61
2022/03/19 02:42:21;;;;;;;;;7.00;5.75;;;;;12.12;36.39;102898.06;2113573;27;47532;-58
2022/03/19 02:43:21;;;;;;;;;5.00;3.50;;;;;12.13;36.21;102893.63;2112900;27;47465;-59
2022/03/19 02:44:22;;;;;;;;;5.00;5.00;;;;;12.12;36.06;102890.09;2113191;27;48071;-60
2022/03/19 02:45:23;;;;;;;;;6.60;6.60;;;;;12.13;36.27;102888.31;2113630;27;47929;-58
2022/03/19 02:46:42;;;;;;;;;7.20;7.00;;;;;12.12;36.36;102891.88;2110214;27;47577;-60
2022/03/19 02:47:57;;;;;;;;;5.80;5.80;;;;;12.14;36.06;102882.13;2104945;28;46610;-60
2022/03/19 02:48:57;;;;;;;;;6.00;4.40;;;;;12.12;36.05;102887.44;2104658;28;47207;-61
2022/03/19 02:49:59;;;;;;;;;4.25;4.25;;;;;12.12;36.23;102890.09;2110333;27;46670;-61
2022/03/19 02:51:00;;;;;;;;;8.00;6.60;;;;;12.11;36.22;102888.31;2112925;27;47752;-61
2022/03/19 02:52:01;;;;;;;;;3.75;3.75;;;;;12.10;36.18;102888.31;2113183;27;47698;-60
2022/03/19 02:53:05;;;;;;;;;5.00;4.20;;;;;12.11;36.08;102887.41;2077897;28;47280;-60
2022/03/19 02:54:08;;;;;;;;;4.80;4.80;;;;;12.10;36.32;102888.31;2080471;27;48317;-61
2022/03/19 02:55:09;;;;;;;;;7.20;5.00;;;;;12.08;36.41;102888.31;2112903;27;47909;-61
2022/03/19 02:56:09;;;;;;;;;9.00;7.50;;;;;12.07;36.31;102887.41;2113479;27;46469;-58
2022/03/19 02:57:09;;;;;;;;;5.00;4.00;;;;;12.08;36.50;102890.97;2113014;27;47487;-59
2022/03/19 02:58:10;;;;;;;;;6.50;6.50;;;;;12.07;36.47;102884.75;2104017;28;47749;-60
2022/03/19 02:59:20;;;;;;;;;6.40;6.40;;;;;12.06;36.49;102882.94;2103738;27;47629;-59
2022/03/19 03:00:22;;;;;;;;;5.40;5.40;;;;;12.07;36.47;102883.84;2111477;27;47337;-61
2022/03/19 03:01:22;;;;;;;;;6.00;6.00;;;;;12.06;36.31;102884.72;2107042;27;48089;-61
2022/03/19 03:02:23;;;;;;;;;6.25;6.25;;;;;12.07;36.46;102881.19;2112150;27;47833;-59
2022/03/19 03:03:23;;;;;;;;;6.00;4.25;;;;;12.06;36.39;102882.03;2103817;28;47296;-58
2022/03/19 03:04:25;;;;;;;;;5.75;5.75;;;;;12.04;36.27;102890.03;2103931;28;48183;-60
2022/03/19 03:05:25;;;;;;;;;6.40;5.20;;;;;12.03;36.52;102882.03;2112888;27;48027;-59
2022/03/19 03:06:26;;;;;;;;;6.25;6.25;;;;;12.01;36.39;102879.38;2112658;27;47537;-57
2022/03/19 03:07:26;;;;;;;;;5.75;5.50;;;;;12.00;36.55;102887.34;2113025;27;47366;-60
2022/03/19 03:08:26;;;;;;;;;6.25;6.25;;;;;11.97;36.37;102880.25;2112990;27;48002;-60
2022/03/19 03:09:29;;;;;;;;;6.00;6.00;;;;;11.97;36.48;102879.34;2112872;27;47460;-61
2022/03/19 03:10:31;;;;;;;;;8.00;7.20;;;;;11.96;36.44;102874.91;2103633;28;47615;-60
2022/03/19 03:11:32;;;;;;;;;4.80;4.80;;;;;11.96;36.61;102878.47;2104227;27;47425;-61
2022/03/19 03:12:33;;;;;;;;;7.80;7.40;;;;;11.96;36.53;102870.47;2112840;27;47686;-60
2022/03/19 03:13:34;;;;;;;;;6.00;6.00;;;;;11.97;36.67;102872.25;2113159;27;47894;-59
2022/03/19 03:14:34;;;;;;;;;7.75;7.00;;;;;11.96;36.54;102869.59;2112736;27;47543;-60
2022/03/19 03:15:35;;;;;;;;;6.00;5.00;;;;;11.97;36.72;102880.25;2112927;27;47767;-60
2022/03/19 03:16:35;;;;;;;;;6.50;6.50;;;;;11.98;36.58;102873.13;2112591;27;47915;-61
2022/03/19 03:17:36;;;;;;;;;4.60;4.00;;;;;11.97;36.61;102872.25;2112946;27;47658;-60
2022/03/19 03:18:37;;;;;;;;;6.25;6.25;;;;;11.98;36.77;102873.13;2112465;27;47841;-60
2022/03/19 03:19:38;;;;;;;;;6.40;6.40;;;;;11.98;36.47;102871.38;2112815;27;47335;-60
2022/03/19 03:20:38;;;;;;;;;8.75;8.00;;;;;11.98;36.69;102874.03;2094650;28;46030;-59
2022/03/19 03:21:39;;;;;;;;;7.75;6.00;;;;;11.98;36.53;102882.00;2095101;28;47826;-59
2022/03/19 03:22:42;;;;;;;;;6.40;6.40;;;;;11.97;36.81;102874.91;2093270;28;46830;-60
2022/03/19 03:23:42;;;;;;;;;6.80;6.60;;;;;11.97;36.89;102874.03;2087182;28;47744;-60
2022/03/19 03:24:43;;;;;;;;;6.00;6.00;;;;;11.97;36.62;102882.00;2087026;28;47566;-60
2022/03/19 03:25:43;;;;;;;;;6.50;6.50;;;;;11.96;36.79;102874.91;2094235;28;47477;-57
2022/03/19 03:26:44;;;;;;;;;6.75;6.75;;;;;11.94;36.64;102877.56;2094898;28;47710;-61
2022/03/19 03:27:46;;;;;;;;;7.00;7.00;;;;;11.93;36.67;102873.09;2095082;28;47256;-60
2022/03/19 03:28:46;;;;;;;;;10.80;7.80;;;;;11.92;36.68;102879.28;2094801;28;47377;-61
2022/03/19 03:29:47;;;;;;;;;8.50;8.00;;;;;11.90;36.85;102873.06;2094916;28;47914;-61
2022/03/19 03:30:47;;;;;;;;;6.00;6.00;;;;;11.89;36.86;102863.31;2093112;28;47439;-59
2022/03/19 03:31:48;;;;;;;;;8.25;8.25;;;;;11.90;36.75;102869.53;2088539;28;48012;-60
2022/03/19 03:32:49;;;;;;;;;8.00;6.00;;;;;11.88;36.67;102868.63;2094094;28;47407;-59
2022/03/19 03:33:49;;;;;;;;;7.00;7.00;;;;;11.88;37.18;102871.28;2086149;28;47425;-60
2022/03/19 03:34:49;;;;;;;;;8.00;6.75;;;;;11.87;36.83;102865.06;2086420;28;47803;-58
2022/03/19 03:35:50;;;;;;;;;5.00;5.00;;;;;11.86;36.62;102859.75;2086675;28;47499;-59
2022/03/19 03:36:51;;;;;;;;;8.25;6.00;;;;;11.85;36.99;102853.53;2092797;28;47741;-58
2022/03/19 03:37:52;;;;;;;;;8.00;7.00;;;;;11.85;37.03;102850.00;2094776;28;47409;-61
2022/03/19 03:38:52;;;;;;;;;6.40;5.80;;;;;11.83;36.79;102844.66;2094781;28;47401;-61
2022/03/19 03:39:53;;;;;;;;;8.50;7.50;;;;;11.82;36.97;102852.63;2094864;28;47601;-61
2022/03/19 03:40:53;;;;;;;;;8.75;7.75;;;;;11.81;36.77;102843.72;2094784;28;47547;-61
2022/03/19 03:41:53;;;;;;;;;9.00;6.00;;;;;11.81;36.97;102842.84;2094955;28;47954;-61
2022/03/19 03:42:54;;;;;;;;;6.75;6.00;;;;;11.79;36.91;102834.84;2086600;28;47220;-61
2022/03/19 03:43:55;;;;;;;;;7.75;6.00;;;;;11.78;37.18;102836.59;2086048;28;47380;-57
2022/03/19 03:44:58;;;;;;;;;8.25;8.25;;;;;11.77;36.90;102831.25;2094966;28;47841;-59
2022/03/19 03:45:59;;;;;;;;;8.60;6.80;;;;;11.76;37.03;102834.81;2094972;28;47711;-59
2022/03/19 03:47:00;;;;;;;;;6.50;6.50;;;;;11.74;37.17;102834.81;2078581;28;47419;-60
2022/03/19 03:48:00;;;;;;;;;9.25;9.00;;;;;11.73;37.06;102845.44;2080749;28;47589;-60
2022/03/19 03:49:01;;;;;;;;;10.25;7.75;;;;;11.71;37.15;102845.44;2086539;28;47450;-58
2022/03/19 03:50:01;;;;;;;;;7.50;7.50;;;;;11.70;37.15;102841.00;2083408;28;47217;-61
2022/03/19 03:51:03;;;;;;;;;7.00;7.00;;;;;11.67;37.37;102845.38;2078295;28;47797;-60
2022/03/19 03:52:05;;;;;;;;;6.60;6.60;;;;;11.65;37.05;102852.44;2081438;28;47818;-60
2022/03/19 03:53:06;;;;;;;;;12.40;9.20;;;;;11.63;37.35;102847.13;2090366;28;47675;-60
2022/03/19 03:54:08;;;;;;;;;7.80;7.60;;;;;11.62;37.24;102855.97;2086575;28;47740;-59
2022/03/19 03:55:09;;;;;;;;;9.20;8.60;;;;;11.63;37.34;102848.91;2104126;27;47768;-60
2022/03/19 03:56:09;;;;;;;;;8.00;7.40;;;;;11.61;37.19;102848.00;2112239;27;48158;-60
2022/03/19 03:57:10;;;;;;;;;7.25;7.25;;;;;11.60;37.36;102844.44;2112667;27;47206;-60
2022/03/19 03:58:11;;;;;;;;;8.50;7.00;;;;;11.61;37.40;102840.03;2113127;27;48038;-61
2022/03/19 03:59:12;;;;;;;;;7.40;7.40;;;;;11.60;37.70;102839.13;2111422;27;48164;-60
2022/03/19 04:00:12;;;;;;;;;8.75;7.75;;;;;11.60;37.55;102839.13;2104058;28;47519;-60
2022/03/19 04:01:13;;;;;;;;;7.60;7.60;;;;;11.59;37.50;102844.44;2109252;27;47159;-59
2022/03/19 04:02:14;;;;;;;;;9.25;8.50;;;;;11.59;37.67;102841.78;2112346;27;47846;-60
2022/03/19 04:03:14;;;;;;;;;8.75;8.00;;;;;11.59;37.41;102839.13;2104496;28;47864;-61
2022/03/19 04:04:15;;;;;;;;;10.25;9.00;;;;;11.57;37.69;102847.09;2108468;27;46673;-60
2022/03/19 04:05:15;;;;;;;;;7.50;7.50;;;;;11.56;37.48;102849.72;2107135;27;47431;-59
2022/03/19 04:06:16;;;;;;;;;7.00;6.00;;;;;11.53;37.43;102842.59;2093669;28;47470;-57
2022/03/19 04:07:16;;;;;;;;;10.50;8.25;;;;;11.51;37.78;102847.03;2094466;28;47698;-61
2022/03/19 04:08:16;;;;;;;;;10.75;9.50;;;;;11.49;37.72;102843.47;2109379;27;47751;-61
2022/03/19 04:09:17;;;;;;;;;9.25;7.75;;;;;11.47;37.65;102847.88;2109485;27;47557;-60
2022/03/19 04:10:17;;;;;;;;;8.75;8.75;;;;;11.45;37.71;102849.66;2112240;27;48432;-60
2022/03/19 04:11:18;;;;;;;;;7.00;7.00;;;;;11.44;37.99;102853.19;2104365;28;48640;-60
2022/03/19 04:12:18;;;;;;;;;9.00;9.00;;;;;11.44;37.56;102842.56;2107386;27;47903;-60
2022/03/19 04:13:19;;;;;;;;;8.00;8.00;;;;;11.44;38.11;102851.41;2112767;27;47840;-60
2022/03/19 04:14:20;;;;;;;;;9.25;8.50;;;;;11.45;38.00;102858.50;2112102;27;47932;-59
2022/03/19 04:15:20;;;;;;;;;10.40;10.40;;;;;11.45;37.80;102849.66;2112790;27;48058;-60
2022/03/19 04:16:21;;;;;;;;;11.50;10.75;;;;;11.44;37.83;102851.41;2112718;27;47450;-60
2022/03/19 04:17:21;;;;;;;;;11.25;10.25;;;;;11.44;38.14;102850.53;2112623;27;47572;-58
2022/03/19 04:18:22;;;;;;;;;11.00;10.25;;;;;11.44;37.89;102850.53;2112737;27;47893;-59
2022/03/19 04:19:22;;;;;;;;;12.25;12.25;;;;;11.42;38.15;102847.81;2112954;27;47882;-60
2022/03/19 04:20:23;;;;;;;;;10.25;8.75;;;;;11.43;37.89;102849.63;2085992;28;47789;-60
2022/03/19 04:21:23;;;;;;;;;11.75;11.75;;;;;11.43;37.97;102848.72;2086550;28;46723;-60
2022/03/19 04:22:31;;;;;;;;;10.50;10.50;;;;;11.43;38.08;102851.38;2112357;27;47610;-58
2022/03/19 04:23:33;;;;;;;;;11.40;11.00;;;;;11.41;38.10;102851.38;2107366;27;47633;-60
2022/03/19 04:24:34;;;;;;;;;11.00;11.00;;;;;11.41;38.05;102851.38;2112426;27;47654;-61
2022/03/19 04:25:34;;;;;;;;;7.20;7.20;;;;;11.41;38.22;102848.69;2112141;27;47721;-59
2022/03/19 04:26:35;;;;;;;;;11.00;11.00;;;;;11.41;38.35;102848.69;2112490;27;47411;-59
2022/03/19 04:27:35;;;;;;;;;12.75;10.25;;;;;11.41;38.35;102848.69;2112495;27;47702;-59
2022/03/19 04:28:35;;;;;;;;;8.00;8.00;;;;;11.40;38.36;102854.91;2112535;27;47424;-61
2022/03/19 04:29:36;;;;;;;;;11.75;10.75;;;;;11.40;38.19;102852.25;2112553;27;47201;-59
2022/03/19 04:30:37;;;;;;;;;11.50;10.00;;;;;11.42;38.31;102854.91;2112395;27;47370;-58
2022/03/19 04:31:38;;;;;;;;;10.40;10.20;;;;;11.41;38.56;102847.81;2112169;27;47424;-60
2022/03/19 04:32:50;;;;;;;;;11.75;10.75;;;;;11.41;38.42;102850.47;2112875;27;47661;-61
2022/03/19 04:33:50;;;;;;;;;11.00;10.20;;;;;11.41;38.42;102855.78;2112654;27;47455;-61
2022/03/19 04:34:51;;;;;;;;;10.00;10.00;;;;;11.39;38.45;102850.47;2112514;27;47580;-61
2022/03/19 04:37:10;;;;;;;;;14.80;12.40;;;;;11.39;38.44;102842.50;2103583;28;47881;-61
2022/03/19 04:38:12;;;;;;;;;13.25;12.25;;;;;11.39;38.90;102847.81;2103346;28;47506;-60
2022/03/19 04:39:13;;;;;;;;;11.00;11.00;;;;;11.39;38.57;102855.78;2112197;27;47829;-61
2022/03/19 04:40:13;;;;;;;;;11.25;11.00;;;;;11.38;38.74;102850.44;2111104;27;47894;-60
2022/03/19 04:41:14;;;;;;;;;12.75;10.75;;;;;11.38;38.95;102853.13;2112419;27;48165;-61
2022/03/19 04:42:14;;;;;;;;;12.75;12.75;;;;;11.37;38.74;102848.69;2110882;27;47863;-60
2022/03/19 04:43:15;;;;;;;;;12.50;11.25;;;;;11.36;38.89;102846.91;2113485;27;47791;-60
2022/03/19 04:44:16;;;;;;;;;16.25;14.50;;;;;11.36;38.70;102852.22;2112190;27;47277;-60
2022/03/19 04:45:16;;;;;;;;;13.00;13.00;;;;;11.36;38.83;102858.41;2114355;27;47494;-64
2022/03/19 04:46:17;;;;;;;;;7.25;6.50;;;;;11.36;39.10;102850.44;2111993;27;47947;-57
2022/03/19 04:47:17;;;;;;;;;11.75;8.25;;;;;11.36;39.10;102860.19;2113996;27;47952;-60
2022/03/19 04:48:18;;;;;;;;;13.50;13.50;;;;;11.36;38.90;102846.91;2111460;27;47680;-60